Time;durP1;ratioP1;P1;durP2;ratioP2;P2;SDS_P1;SDS_P2;PMS_P1;PMS_P2;Temp;Humidity;BMP_temperature;BMP_pressure;BME280_temperature;BME280_humidity;BME280_pressure;Samples;Min_cycle;Max_cycle;Signal;HPM_P1;HPM_P2
2023/07/31 00:01:11;;;;;;;2.38;0.90;;;17.90;99.90;;;;;;5158892;27;20022;-67
2023/07/31 00:03:37;;;;;;;4.82;1.00;;;17.80;99.90;;;;;;5177481;27;20041;-66
2023/07/31 00:06:03;;;;;;;0.80;0.80;;;17.80;99.90;;;;;;5177122;27;20022;-66
2023/07/31 00:08:28;;;;;;;1.42;0.93;;;17.70;99.90;;;;;;5177410;27;20029;-66
2023/07/31 00:10:54;;;;;;;1.58;1.17;;;17.60;99.90;;;;;;5177370;27;20018;-66
2023/07/31 00:13:19;;;;;;;1.15;1.02;;;17.60;99.90;;;;;;5177236;27;20037;-66
2023/07/31 00:15:45;;;;;;;2.45;0.85;;;17.50;99.90;;;;;;5177251;27;20024;-66
2023/07/31 00:18:11;;;;;;;4.80;0.90;;;17.40;99.90;;;;;;5177511;27;20058;-66
2023/07/31 00:20:36;;;;;;;1.77;1.17;;;17.30;99.90;;;;;;5177437;27;20074;-66
2023/07/31 00:23:02;;;;;;;3.97;1.20;;;17.30;99.90;;;;;;5176872;27;20026;-66
2023/07/31 00:25:27;;;;;;;2.00;1.00;;;17.20;99.90;;;;;;5176595;27;20039;-67
2023/07/31 00:27:53;;;;;;;2.55;1.00;;;17.20;99.90;;;;;;5176804;27;20018;-67
2023/07/31 00:30:19;;;;;;;1.73;1.25;;;17.10;99.90;;;;;;5158049;27;20041;-67
2023/07/31 00:32:44;;;;;;;1.65;1.00;;;17.00;99.90;;;;;;5176901;27;20061;-67
2023/07/31 00:35:10;;;;;;;3.00;1.45;;;16.90;99.90;;;;;;5158189;27;20474;-67
2023/07/31 00:37:35;;;;;;;4.03;1.20;;;16.90;99.90;;;;;;5158134;27;20030;-67
2023/07/31 00:40:03;;;;;;;2.22;1.17;;;16.80;99.90;;;;;;5176847;27;20026;-67
2023/07/31 00:42:29;;;;;;;1.40;1.20;;;16.70;99.90;;;;;;5158115;27;20026;-67
2023/07/31 00:44:54;;;;;;;1.30;1.20;;;16.70;99.90;;;;;;5158089;27;20029;-66
2023/07/31 00:47:20;;;;;;;3.55;1.20;;;16.60;99.90;;;;;;5157784;27;20079;-67
2023/07/31 00:49:45;;;;;;;2.97;1.58;;;16.60;99.90;;;;;;5176647;27;20113;-67
2023/07/31 00:52:11;;;;;;;1.45;1.35;;;16.50;99.90;;;;;;5176664;27;20014;-66
2023/07/31 00:54:37;;;;;;;3.60;1.10;;;16.50;99.90;;;;;;5176191;27;20032;-66
2023/07/31 00:57:03;;;;;;;2.65;1.50;;;16.50;99.90;;;;;;5176885;27;20022;-66
2023/07/31 00:59:29;;;;;;;1.48;1.33;;;16.50;99.90;;;;;;5176565;27;20027;-66
2023/07/31 01:01:54;;;;;;;2.95;1.55;;;16.50;99.90;;;;;;5176466;27;20018;-66
2023/07/31 01:04:21;;;;;;;1.25;1.00;;;16.50;99.90;;;;;;5157758;27;20022;-66
2023/07/31 01:07:01;;;;;;;3.60;1.42;;;16.50;99.90;;;;;;5157752;27;20482;-66
2023/07/31 01:09:55;;;;;;;3.67;1.15;;;16.40;99.90;;;;;;5176321;27;20479;-67
2023/07/31 01:12:23;;;;;;;1.90;1.35;;;16.40;99.90;;;;;;5176395;27;20105;-66
2023/07/31 01:15:04;;;;;;;2.72;1.50;;;16.30;99.90;;;;;;5157602;27;20561;-66
2023/07/31 01:17:31;;;;;;;1.20;0.93;;;16.30;99.90;;;;;;5176300;27;20074;-66
2023/07/31 01:20:01;;;;;;;3.55;1.40;;;16.30;99.90;;;;;;5157889;27;20450;-66
2023/07/31 01:22:32;;;;;;;2.60;1.50;;;16.20;99.90;;;;;;5176527;27;20113;-66
2023/07/31 01:25:40;;;;;;;4.00;1.45;;;16.20;99.90;;;;;;5176257;27;20057;-66
2023/07/31 01:28:13;;;;;;;2.08;1.25;;;16.20;99.90;;;;;;5175971;27;20038;-66
2023/07/31 01:30:44;;;;;;;3.70;1.30;;;16.30;99.90;;;;;;5176252;27;20049;-66
2023/07/31 01:33:10;;;;;;;2.20;1.05;;;16.30;99.90;;;;;;5175912;27;20475;-66
2023/07/31 01:35:37;;;;;;;4.47;1.50;;;16.30;99.90;;;;;;5157414;27;20470;-66
2023/07/31 01:38:04;;;;;;;2.97;1.38;;;16.30;99.90;;;;;;5176195;27;20018;-66
2023/07/31 01:40:29;;;;;;;4.35;1.30;;;16.30;99.90;;;;;;5176098;27;20039;-66
2023/07/31 01:42:55;;;;;;;4.15;1.77;;;16.30;99.90;;;;;;5175765;27;20156;-66
2023/07/31 01:45:21;;;;;;;2.60;1.35;;;16.30;99.90;;;;;;5176015;27;20026;-66
2023/07/31 01:47:46;;;;;;;6.90;1.45;;;16.30;99.90;;;;;;5175731;27;20075;-66
2023/07/31 01:50:12;;;;;;;1.58;1.13;;;16.40;99.90;;;;;;5175980;27;20027;-66
2023/07/31 01:52:38;;;;;;;2.08;1.88;;;16.40;99.90;;;;;;5176276;27;20030;-66
2023/07/31 01:55:04;;;;;;;3.42;1.38;;;16.30;99.90;;;;;;5176044;27;20027;-66
2023/07/31 01:57:29;;;;;;;3.83;1.30;;;16.30;99.90;;;;;;5176218;27;20033;-66
2023/07/31 01:59:55;;;;;;;2.67;1.00;;;16.30;99.90;;;;;;5175936;27;20356;-66
2023/07/31 02:02:25;;;;;;;1.77;1.13;;;16.30;99.90;;;;;;5157162;27;20052;-66
2023/07/31 02:04:51;;;;;;;3.10;1.23;;;16.30;99.90;;;;;;5175895;27;20033;-66
2023/07/31 02:07:16;;;;;;;2.40;1.63;;;16.20;99.90;;;;;;5175862;27;20014;-66
2023/07/31 02:09:42;;;;;;;4.65;1.23;;;16.20;99.90;;;;;;5175815;27;20519;-67
2023/07/31 02:12:08;;;;;;;1.63;1.30;;;16.10;99.90;;;;;;5157143;27;20065;-66
2023/07/31 02:14:34;;;;;;;3.00;1.27;;;16.10;99.90;;;;;;5157074;27;20030;-67
2023/07/31 02:17:00;;;;;;;6.43;1.48;;;16.10;99.90;;;;;;5175412;27;20022;-66
2023/07/31 02:19:26;;;;;;;2.25;1.33;;;16.10;99.90;;;;;;5175841;27;20018;-66
2023/07/31 02:21:51;;;;;;;1.33;1.25;;;16.10;99.90;;;;;;5177841;27;20378;-66
2023/07/31 02:24:17;;;;;;;2.60;1.20;;;16.10;99.90;;;;;;5160605;27;20046;-66
2023/07/31 02:26:42;;;;;;;3.47;1.27;;;16.10;99.90;;;;;;5160776;27;20023;-66
2023/07/31 02:29:08;;;;;;;2.35;1.25;;;16.10;99.90;;;;;;5179254;27;20109;-66
2023/07/31 02:31:34;;;;;;;1.73;1.35;;;16.00;99.90;;;;;;5160842;27;20110;-66
2023/07/31 02:34:00;;;;;;;3.13;1.35;;;16.00;99.90;;;;;;5178959;27;20062;-66
2023/07/31 02:36:25;;;;;;;4.30;1.52;;;16.00;99.90;;;;;;5160754;27;20054;-66
2023/07/31 02:38:51;;;;;;;3.85;1.73;;;15.90;99.90;;;;;;5179178;27;20023;-69
2023/07/31 02:41:17;;;;;;;2.80;1.20;;;15.90;99.90;;;;;;5178880;27;20062;-67
2023/07/31 02:43:42;;;;;;;2.70;1.20;;;15.90;99.90;;;;;;5179185;27;20026;-66
2023/07/31 02:46:08;;;;;;;3.30;1.30;;;15.90;99.90;;;;;;5179045;27;20105;-66
2023/07/31 02:48:33;;;;;;;8.23;1.40;;;15.90;99.90;;;;;;5179329;27;20389;-66
2023/07/31 02:50:59;;;;;;;4.97;1.45;;;15.90;99.90;;;;;;5178716;27;20033;-66
2023/07/31 02:53:25;;;;;;;4.75;1.58;;;15.90;99.90;;;;;;5178864;27;20031;-66
2023/07/31 02:55:50;;;;;;;3.85;1.48;;;15.90;99.90;;;;;;5178847;27;20458;-66
2023/07/31 02:58:16;;;;;;;6.18;1.67;;;15.90;99.90;;;;;;5178809;27;20022;-66
2023/07/31 03:00:43;;;;;;;1.45;1.35;;;15.90;99.90;;;;;;5178779;27;20584;-66
2023/07/31 03:03:08;;;;;;;3.25;1.42;;;15.90;99.90;;;;;;5159618;27;20018;-66
2023/07/31 03:05:34;;;;;;;2.00;1.20;;;15.90;99.90;;;;;;5178643;27;20022;-67
2023/07/31 03:08:00;;;;;;;4.53;1.77;;;15.90;99.90;;;;;;5178327;27;20054;-66
2023/07/31 03:10:25;;;;;;;3.58;2.38;;;15.90;99.90;;;;;;5178601;27;20023;-66
2023/07/31 03:12:51;;;;;;;4.85;1.60;;;15.80;99.90;;;;;;5159843;27;20018;-66
2023/07/31 03:15:16;;;;;;;6.07;1.73;;;15.80;99.90;;;;;;5178112;27;20040;-66
2023/07/31 03:17:42;;;;;;;3.80;1.58;;;15.80;99.90;;;;;;5178481;27;20022;-66
2023/07/31 03:20:08;;;;;;;3.03;1.50;;;15.80;99.90;;;;;;5178698;27;20026;-66
2023/07/31 03:22:35;;;;;;;5.43;1.30;;;15.80;99.90;;;;;;5178391;27;20057;-66
2023/07/31 03:25:03;;;;;;;4.38;1.40;;;15.80;99.90;;;;;;5177815;27;20038;-66
2023/07/31 03:27:29;;;;;;;3.17;1.83;;;15.70;99.90;;;;;;5159311;27;20030;-66
2023/07/31 03:29:55;;;;;;;2.00;1.63;;;15.70;99.90;;;;;;5178168;27;20025;-66
2023/07/31 03:32:20;;;;;;;2.95;1.40;;;15.60;99.90;;;;;;5177847;27;20053;-66
2023/07/31 03:34:46;;;;;;;1.88;1.60;;;15.70;99.90;;;;;;5178100;27;20030;-66
2023/07/31 03:37:12;;;;;;;3.67;1.58;;;15.70;99.90;;;;;;5177733;27;20022;-66
2023/07/31 03:39:37;;;;;;;4.30;1.73;;;15.60;99.90;;;;;;5177980;27;20462;-66
2023/07/31 03:42:03;;;;;;;8.93;3.67;;;15.70;99.90;;;;;;5159128;27;20474;-66
2023/07/31 03:44:29;;;;;;;2.50;1.80;;;15.60;99.90;;;;;;5178148;27;20026;-66
2023/07/31 03:46:55;;;;;;;2.05;1.65;;;15.70;99.90;;;;;;5177445;27;20046;-66
2023/07/31 03:49:20;;;;;;;1.63;1.52;;;15.70;99.90;;;;;;5178164;27;20109;-66
2023/07/31 03:51:46;;;;;;;5.53;1.90;;;15.70;99.90;;;;;;5177705;27;20101;-67
2023/07/31 03:54:13;;;;;;;3.28;1.95;;;15.80;99.90;;;;;;5177284;27;20034;-66
2023/07/31 03:56:38;;;;;;;2.95;1.92;;;15.90;99.90;;;;;;5159267;27;20019;-66
2023/07/31 03:59:04;;;;;;;3.03;1.77;;;15.90;99.90;;;;;;5177616;27;20070;-66
2023/07/31 04:01:30;;;;;;;5.47;2.03;;;15.90;99.90;;;;;;5177537;27;20033;-67
2023/07/31 04:03:55;;;;;;;2.45;1.98;;;16.00;99.90;;;;;;5177318;27;20022;-58
2023/07/31 04:06:21;;;;;;;4.53;2.10;;;16.00;99.90;;;;;;5177346;27;20105;-59
2023/07/31 04:08:47;;;;;;;3.22;2.17;;;16.10;99.90;;;;;;5177420;27;20054;-59
2023/07/31 04:11:12;;;;;;;3.53;2.05;;;16.20;99.90;;;;;;5158640;27;20022;-59
2023/07/31 04:13:38;;;;;;;2.47;2.10;;;16.30;99.90;;;;;;5177418;27;20031;-59
2023/07/31 04:16:04;;;;;;;2.72;1.95;;;16.40;99.90;;;;;;5177004;27;20114;-59
2023/07/31 04:18:33;;;;;;;3.40;1.65;;;16.50;99.90;;;;;;5158936;27;20038;-59
2023/07/31 04:20:59;;;;;;;4.32;2.67;;;16.50;99.90;;;;;;5177151;27;20026;-59
2023/07/31 04:23:25;;;;;;;6.53;2.20;;;16.60;99.90;;;;;;5177011;27;20049;-59
2023/07/31 04:25:51;;;;;;;2.63;2.25;;;16.70;99.90;;;;;;5177234;27;20032;-59
2023/07/31 04:28:16;;;;;;;3.70;1.83;;;16.70;99.90;;;;;;5158376;27;20018;-59
2023/07/31 04:30:42;;;;;;;3.40;1.77;;;16.80;99.90;;;;;;5176985;27;20026;-59
2023/07/31 04:33:08;;;;;;;3.08;1.80;;;16.90;99.90;;;;;;5176523;27;20101;-59
2023/07/31 04:35:34;;;;;;;4.60;1.92;;;17.10;99.90;;;;;;5176830;27;20114;-59
2023/07/31 04:37:59;;;;;;;4.13;2.25;;;17.30;99.90;;;;;;5177101;27;20062;-59
2023/07/31 04:40:25;;;;;;;2.17;1.60;;;17.40;99.90;;;;;;5177113;27;20116;-58
2023/07/31 04:42:51;;;;;;;4.88;2.20;;;17.50;99.90;;;;;;5176784;27;20477;-59
2023/07/31 04:45:16;;;;;;;1.95;1.65;;;17.60;99.90;;;;;;5176321;27;20485;-59
2023/07/31 04:47:42;;;;;;;4.65;1.42;;;17.60;99.90;;;;;;5176296;27;20022;-59
2023/07/31 04:50:08;;;;;;;4.70;1.75;;;17.70;99.90;;;;;;5176658;27;20439;-59
2023/07/31 04:52:34;;;;;;;2.85;1.50;;;17.80;99.90;;;;;;5176860;27;20042;-59
2023/07/31 04:54:59;;;;;;;2.65;1.70;;;17.90;99.90;;;;;;5176488;27;20038;-59
2023/07/31 04:57:25;;;;;;;4.80;1.63;;;18.10;99.90;;;;;;5176110;27;20026;-60
2023/07/31 04:59:51;;;;;;;2.13;1.55;;;18.20;99.90;;;;;;5176702;27;20388;-59
2023/07/31 05:02:16;;;;;;;1.40;1.23;;;18.40;99.90;;;;;;5157792;27;20018;-59
2023/07/31 05:04:42;;;;;;;3.45;1.50;;;18.50;99.90;;;;;;5176440;27;20344;-59
2023/07/31 05:07:08;;;;;;;3.83;1.73;;;18.60;99.90;;;;;;5176649;27;20048;-59
2023/07/31 05:09:33;;;;;;;2.55;1.17;;;18.70;99.90;;;;;;5173870;27;20041;-59
2023/07/31 05:11:59;;;;;;;5.00;1.45;;;18.80;99.90;;;;;;5174091;27;20310;-59
2023/07/31 05:14:26;;;;;;;6.20;1.55;;;18.80;99.90;;;;;;5176196;27;20114;-59
2023/07/31 05:16:52;;;;;;;3.83;1.88;;;18.80;99.90;;;;;;5176168;27;20027;-58
2023/07/31 05:19:17;;;;;;;2.28;1.30;;;18.80;99.90;;;;;;5176091;27;20017;-58
2023/07/31 05:21:43;;;;;;;3.30;1.35;;;18.90;99.90;;;;;;5176088;27;20019;-59
2023/07/31 05:24:10;;;;;;;4.47;1.40;;;18.90;99.90;;;;;;5175726;27;20053;-58
2023/07/31 05:26:36;;;;;;;5.43;1.60;;;18.80;99.90;;;;;;5176057;27;20451;-59
2023/07/31 05:29:02;;;;;;;2.15;1.33;;;18.80;99.90;;;;;;5176071;27;20026;-59
2023/07/31 05:31:28;;;;;;;2.60;1.33;;;18.80;99.90;;;;;;5175929;27;20034;-59
2023/07/31 05:33:53;;;;;;;3.13;1.13;;;18.90;99.90;;;;;;5176496;27;20534;-59
2023/07/31 05:36:19;;;;;;;4.05;1.27;;;18.90;99.90;;;;;;5154949;27;20179;-59
2023/07/31 05:38:45;;;;;;;5.45;1.70;;;19.00;99.90;;;;;;5175784;27;20379;-59
2023/07/31 05:41:12;;;;;;;4.40;1.45;;;19.20;99.90;;;;;;5157316;27;20078;-64
2023/07/31 05:43:37;;;;;;;1.63;1.02;;;19.20;99.90;;;;;;5176032;27;20036;-59
2023/07/31 05:46:03;;;;;;;2.95;1.40;;;19.40;99.90;;;;;;5175753;27;20094;-59
2023/07/31 05:48:28;;;;;;;2.92;1.38;;;19.40;99.90;;;;;;5176108;27;20101;-59
2023/07/31 05:50:54;;;;;;;4.38;1.50;;;19.60;99.90;;;;;;5156970;27;20034;-58
2023/07/31 05:53:20;;;;;;;2.65;1.58;;;19.70;99.90;;;;;;5175641;27;20081;-59
2023/07/31 05:55:45;;;;;;;2.53;1.30;;;19.80;99.90;;;;;;5176469;27;20023;-58
2023/07/31 05:58:11;;;;;;;6.22;1.48;;;19.90;99.90;;;;;;5180373;27;20030;-59
2023/07/31 06:00:37;;;;;;;4.93;1.98;;;20.00;99.90;;;;;;5180146;27;20050;-59
2023/07/31 06:03:02;;;;;;;4.10;1.15;;;20.10;99.90;;;;;;5180701;27;20061;-59
2023/07/31 06:05:29;;;;;;;1.75;1.42;;;20.10;99.90;;;;;;5179540;27;20113;-59
2023/07/31 06:07:55;;;;;;;1.88;1.30;;;20.30;99.90;;;;;;5179765;27;20066;-59
2023/07/31 06:10:21;;;;;;;3.08;1.45;;;20.40;99.90;;;;;;5179781;27;20022;-59
2023/07/31 06:12:46;;;;;;;1.98;1.23;;;20.40;99.90;;;;;;5179632;27;20029;-59
2023/07/31 06:15:12;;;;;;;3.92;1.15;;;20.50;99.90;;;;;;5179594;27;20541;-58
2023/07/31 06:17:38;;;;;;;4.03;1.30;;;20.60;99.90;;;;;;5179559;27;20018;-59
2023/07/31 06:20:07;;;;;;;3.80;1.60;;;20.60;99.90;;;;;;5179509;27;20098;-59
2023/07/31 06:22:32;;;;;;;;;;;20.60;99.90;;;;;;5179651;27;20018;-59
2023/07/31 06:24:58;;;;;;;3.05;1.33;;;20.60;99.90;;;;;;5179016;27;20287;-59
2023/07/31 06:27:24;;;;;;;4.93;1.40;;;20.60;99.90;;;;;;5179196;27;20026;-59
2023/07/31 06:29:50;;;;;;;5.07;1.50;;;20.70;99.90;;;;;;5160785;27;20033;-59
2023/07/31 06:32:15;;;;;;;1.77;1.23;;;20.70;99.90;;;;;;5179284;27;20025;-59
2023/07/31 06:34:41;;;;;;;4.07;1.20;;;20.80;99.90;;;;;;5179170;27;20066;-59
2023/07/31 06:37:07;;;;;;;5.93;1.50;;;20.90;99.90;;;;;;5160406;27;20026;-57
2023/07/31 06:39:32;;;;;;;1.63;1.05;;;21.30;99.90;;;;;;5178828;27;20109;-59
2023/07/31 06:41:58;;;;;;;2.10;1.00;;;21.70;99.90;;;;;;5160471;27;20030;-59
2023/07/31 06:44:23;;;;;;;1.40;1.10;;;22.00;99.70;;;;;;5179526;27;20074;-57
2023/07/31 06:46:49;;;;;;;3.60;1.13;;;22.40;98.60;;;;;;5178959;27;20028;-56
2023/07/31 06:49:15;;;;;;;1.10;0.80;;;22.60;98.10;;;;;;5179381;27;20400;-57
2023/07/31 06:51:41;;;;;;;1.02;0.95;;;22.80;96.10;;;;;;5178845;27;20507;-57
2023/07/31 06:54:08;;;;;;;3.10;1.10;;;22.90;95.90;;;;;;5178999;27;20038;-59
2023/07/31 06:56:34;;;;;;;5.03;1.92;;;23.00;95.10;;;;;;5178544;27;20022;-57
2023/07/31 06:59:00;;;;;;;3.25;0.95;;;23.30;94.70;;;;;;5178639;27;20026;-57
2023/07/31 07:01:25;;;;;;;3.38;1.15;;;23.70;93.70;;;;;;5178668;27;20026;-56
2023/07/31 07:03:51;;;;;;;2.50;1.00;;;24.00;92.10;;;;;;5178590;27;20022;-56
2023/07/31 07:06:22;;;;;;;3.05;1.02;;;24.40;90.50;;;;;;5178495;27;20014;-56
2023/07/31 07:08:48;;;;;;;3.00;0.75;;;24.50;90.20;;;;;;5178470;27;20030;-57
2023/07/31 07:11:13;;;;;;;3.45;1.42;;;24.40;88.00;;;;;;5178359;27;20019;-56
2023/07/31 07:13:39;;;;;;;2.45;0.90;;;24.20;86.90;;;;;;5178397;27;20038;-56
2023/07/31 07:16:05;;;;;;;3.45;0.90;;;24.00;87.40;;;;;;5178436;27;20370;-56
2023/07/31 07:18:30;;;;;;;3.50;1.10;;;23.90;86.10;;;;;;5178444;27;20340;-59
2023/07/31 07:20:58;;;;;;;3.17;1.15;;;23.50;87.10;;;;;;5178037;27;20018;-59
2023/07/31 07:23:24;;;;;;;2.45;0.90;;;23.10;87.90;;;;;;5178116;27;20092;-59
2023/07/31 07:25:49;;;;;;;3.17;1.40;;;22.80;89.20;;;;;;5178553;27;20023;-56
2023/07/31 07:28:15;;;;;;;5.43;1.17;;;22.60;89.20;;;;;;5178358;27;20029;-59
2023/07/31 07:30:41;;;;;;;4.20;1.10;;;22.30;90.10;;;;;;5178401;27;20101;-59
2023/07/31 07:33:06;;;;;;;2.15;1.10;;;22.30;90.40;;;;;;5159340;27;20025;-59
2023/07/31 07:35:36;;;;;;;3.85;1.20;;;22.30;90.40;;;;;;5159318;27;20038;-59
2023/07/31 07:38:03;;;;;;;5.43;1.27;;;22.30;90.80;;;;;;5178016;27;20035;-56
2023/07/31 07:40:28;;;;;;;1.00;0.90;;;22.40;90.80;;;;;;5159187;27;20102;-59
2023/07/31 07:42:54;;;;;;;3.80;1.02;;;22.40;90.30;;;;;;5177408;27;20026;-59
2023/07/31 07:45:19;;;;;;;2.72;1.50;;;22.30;90.00;;;;;;5175361;27;20037;-58
2023/07/31 07:47:45;;;;;;;4.45;1.55;;;22.30;90.20;;;;;;5175559;27;20082;-58
2023/07/31 07:50:11;;;;;;;4.70;1.30;;;22.20;90.30;;;;;;5177483;27;20018;-65
2023/07/31 07:52:36;;;;;;;2.95;0.98;;;22.10;90.50;;;;;;5177495;27;20059;-66
2023/07/31 07:55:03;;;;;;;4.43;1.20;;;21.90;90.90;;;;;;5177144;27;20470;-65
2023/07/31 07:57:29;;;;;;;4.13;1.02;;;21.50;90.60;;;;;;5177743;27;20099;-65
2023/07/31 07:59:54;;;;;;;2.35;0.90;;;21.10;91.20;;;;;;5177110;27;20051;-66
2023/07/31 08:02:20;;;;;;;3.53;0.98;;;20.90;91.40;;;;;;5177254;27;20494;-65
2023/07/31 08:04:46;;;;;;;4.15;0.98;;;20.80;91.80;;;;;;5177179;27;20030;-66
2023/07/31 08:07:12;;;;;;;2.50;1.20;;;20.80;92.00;;;;;;5177366;27;20026;-66
2023/07/31 08:09:38;;;;;;;4.78;1.25;;;20.90;92.10;;;;;;5177384;27;20025;-65
2023/07/31 08:12:05;;;;;;;3.38;0.90;;;21.00;92.00;;;;;;5158630;27;20378;-66
2023/07/31 08:14:30;;;;;;;3.00;0.85;;;21.10;92.20;;;;;;5158338;27;20493;-66
2023/07/31 08:16:56;;;;;;;5.95;1.25;;;21.60;91.00;;;;;;5158458;27;20030;-66
2023/07/31 08:19:22;;;;;;;3.30;1.02;;;22.80;90.90;;;;;;5176563;27;20030;-64
2023/07/31 08:21:48;;;;;;;2.08;1.48;;;24.00;84.90;;;;;;5176939;27;20022;-64
2023/07/31 08:24:13;;;;;;;6.20;0.98;;;24.50;81.30;;;;;;5144329;27;20053;-64
2023/07/31 08:26:39;;;;;;;3.72;1.10;;;24.90;80.40;;;;;;5134916;27;20482;-64
2023/07/31 08:29:04;;;;;;;2.97;1.33;;;25.50;77.30;;;;;;5134169;27;20523;-64
2023/07/31 08:31:30;;;;;;;4.15;1.30;;;25.80;76.30;;;;;;5135131;27;20027;-64
2023/07/31 08:33:56;;;;;;;5.45;1.25;;;26.40;74.20;;;;;;5134784;27;20042;-64
2023/07/31 08:36:22;;;;;;;3.13;0.80;;;26.10;72.90;;;;;;5134892;27;20049;-64
2023/07/31 08:38:48;;;;;;;3.35;1.00;;;25.20;74.10;;;;;;5133891;27;20027;-64
2023/07/31 08:41:13;;;;;;;3.30;1.23;;;24.70;74.40;;;;;;5133785;27;20463;-66
2023/07/31 08:43:39;;;;;;;5.43;1.40;;;24.40;75.20;;;;;;5134970;27;20023;-64
2023/07/31 08:46:05;;;;;;;3.35;1.17;;;24.50;75.40;;;;;;5130050;27;20023;-64
2023/07/31 08:48:32;;;;;;;3.58;1.23;;;24.90;74.70;;;;;;5134807;27;20034;-64
2023/07/31 08:50:57;;;;;;;3.80;1.17;;;25.00;74.00;;;;;;5133456;27;20452;-64
2023/07/31 08:53:23;;;;;;;4.00;1.35;;;25.50;74.00;;;;;;5133436;27;20051;-64
2023/07/31 08:55:52;;;;;;;6.15;1.52;;;25.20;72.50;;;;;;5134603;27;20076;-64
2023/07/31 08:58:19;;;;;;;3.42;0.98;;;24.80;72.90;;;;;;5133580;27;20023;-64
2023/07/31 09:00:46;;;;;;;2.13;1.10;;;24.00;75.00;;;;;;5134742;27;20039;-64
2023/07/31 09:03:16;;;;;;;2.83;1.20;;;23.70;76.00;;;;;;5134736;27;20027;-64
2023/07/31 09:05:45;;;;;;;5.43;1.70;;;23.90;76.10;;;;;;5134542;27;20050;-64
2023/07/31 09:08:12;;;;;;;6.32;1.42;;;24.50;74.80;;;;;;5133600;27;20071;-64
2023/07/31 09:10:43;;;;;;;5.82;1.67;;;25.50;73.00;;;;;;5134742;27;20038;-64
2023/07/31 09:13:09;;;;;;;4.15;1.10;;;25.70;71.60;;;;;;5134747;27;20034;-65
2023/07/31 09:15:36;;;;;;;4.55;1.00;;;25.80;70.10;;;;;;5134723;27;20448;-66
2023/07/31 09:18:04;;;;;;;2.80;0.80;;;26.50;70.60;;;;;;5133523;27;20426;-66
2023/07/31 09:20:31;;;;;;;5.13;1.10;;;27.00;66.20;;;;;;5134780;27;20023;-64
2023/07/31 09:23:07;;;;;;;2.55;0.80;;;26.40;66.10;;;;;;5134899;27;20027;-64
2023/07/31 09:25:32;;;;;;;3.65;1.05;;;26.20;66.70;;;;;;5134735;27;20035;-65
2023/07/31 09:28:00;;;;;;;2.13;0.88;;;26.10;66.80;;;;;;5134862;28;20025;-66
2023/07/31 09:30:26;;;;;;;1.67;1.10;;;26.00;67.50;;;;;;5136330;27;20110;-66
2023/07/31 09:33:03;;;;;;;3.10;1.10;;;26.40;66.80;;;;;;5137632;27;20446;-65
2023/07/31 09:35:31;;;;;;;3.47;0.90;;;27.20;64.00;;;;;;5139093;27;20031;-65
2023/07/31 09:38:03;;;;;;;1.38;0.90;;;27.20;62.30;;;;;;5137421;27;20468;-65
2023/07/31 09:40:33;;;;;;;3.85;0.70;;;26.70;62.90;;;;;;5138634;27;20046;-65
2023/07/31 09:43:07;;;;;;;3.78;0.80;;;26.90;62.40;;;;;;5139034;27;20031;-66
2023/07/31 09:45:40;;;;;;;2.70;1.00;;;27.30;62.00;;;;;;5138670;27;20051;-67
2023/07/31 09:48:16;;;;;;;2.35;0.80;;;27.80;63.60;;;;;;5138735;27;20088;-68
2023/07/31 09:50:45;;;;;;;3.92;0.75;;;28.60;61.90;;;;;;5137166;27;20486;-68
2023/07/31 09:53:10;;;;;;;2.45;1.10;;;29.30;59.90;;;;;;5138389;27;20023;-67
2023/07/31 09:55:38;;;;;;;2.47;1.10;;;29.10;58.30;;;;;;5138436;27;20031;-68
2023/07/31 09:58:10;;;;;;;1.45;0.80;;;29.60;58.70;;;;;;5138452;27;20027;-68
2023/07/31 10:00:36;;;;;;;2.15;1.10;;;29.90;57.30;;;;;;5137481;27;20371;-69
2023/07/31 10:03:05;;;;;;;2.45;0.93;;;29.90;56.90;;;;;;5138579;27;20019;-67
2023/07/31 10:05:36;;;;;;;3.60;1.08;;;29.30;56.40;;;;;;5138211;27;20019;-68
2023/07/31 10:08:03;;;;;;;3.10;1.05;;;29.50;58.00;;;;;;5137978;27;20491;-68
2023/07/31 10:10:29;;;;;;;5.22;0.70;;;29.30;55.80;;;;;;5137881;27;20046;-66
2023/07/31 10:12:56;;;;;;;3.75;0.90;;;29.10;57.30;;;;;;5138122;27;20456;-69
2023/07/31 10:15:22;;;;;;;2.03;0.75;;;29.40;56.80;;;;;;5137678;27;20031;-68
2023/07/31 10:17:49;;;;;;;3.20;0.80;;;29.80;55.40;;;;;;5138019;27;20023;-69
2023/07/31 10:20:16;;;;;;;6.32;1.00;;;30.40;52.90;;;;;;5137888;27;20015;-69
2023/07/31 10:22:47;;;;;;;4.18;0.95;;;30.90;53.80;;;;;;5136597;27;20029;-69
2023/07/31 10:25:14;;;;;;;2.28;0.90;;;31.30;52.50;;;;;;5174952;27;20061;-69
2023/07/31 10:27:40;;;;;;;2.60;0.90;;;30.60;51.70;;;;;;5179040;27;20061;-69
2023/07/31 10:30:09;;;;;;;3.97;0.98;;;30.60;53.30;;;;;;5160782;27;20050;-69
2023/07/31 10:32:36;;;;;;;2.88;0.68;;;30.80;52.00;;;;;;5160235;27;20051;-69
2023/07/31 10:35:08;;;;;;;2.10;1.13;;;30.90;52.00;;;;;;5179150;27;20034;-69
2023/07/31 10:37:39;;;;;;;1.73;1.10;;;31.00;51.60;;;;;;5178760;27;20022;-69
2023/07/31 10:40:37;;;;;;;3.80;1.10;;;31.20;51.00;;;;;;5178998;27;20036;-69
2023/07/31 10:43:03;;;;;;;;;;;31.50;49.30;;;;;;5141267;27;20034;-69
2023/07/31 10:45:42;;;;;;;3.63;0.85;;;31.40;49.10;;;;;;5160602;27;19909;-70
2023/07/31 10:48:17;;;;;;;3.28;1.00;;;31.80;48.60;;;;;;5179084;27;20428;-70
2023/07/31 10:50:50;;;;;;;2.17;0.90;;;32.40;48.40;;;;;;5179156;27;20034;-69
2023/07/31 10:53:29;;;;;;;3.33;0.80;;;32.30;47.10;;;;;;5178587;27;20463;-70
2023/07/31 10:56:03;;;;;;;4.40;1.25;;;32.30;48.50;;;;;;5178793;27;20474;-69
2023/07/31 10:58:28;;;;;;;2.00;0.95;;;32.80;47.40;;;;;;5160591;27;20378;-70
2023/07/31 11:01:00;;;;;;;2.63;1.20;;;32.80;46.60;;;;;;5160052;27;20113;-69
2023/07/31 11:03:40;;;;;;;2.42;0.52;;;32.90;46.90;;;;;;5178583;27;20058;-69
2023/07/31 11:06:05;;;;;;;3.45;0.93;;;32.90;47.60;;;;;;5178704;27;20014;-68
2023/07/31 11:08:40;;;;;;;1.20;0.70;;;33.00;47.10;;;;;;5178579;27;20022;-66
2023/07/31 11:11:08;;;;;;;2.55;0.80;;;32.70;46.30;;;;;;5159896;27;20105;-67
2023/07/31 11:13:52;;;;;;;1.52;0.80;;;32.60;47.00;;;;;;5178431;27;20106;-65
2023/07/31 11:16:20;;;;;;;3.10;0.93;;;32.80;46.50;;;;;;5178492;27;20105;-65
2023/07/31 11:18:48;;;;;;;2.83;0.80;;;32.50;46.10;;;;;;5178402;27;20082;-65
2023/07/31 11:21:15;;;;;;;1.20;0.87;;;32.30;46.50;;;;;;5178450;27;20026;-67
2023/07/31 11:23:41;;;;;;;2.60;1.02;;;32.50;46.10;;;;;;5159264;27;20283;-67
2023/07/31 11:26:07;;;;;;;1.67;0.80;;;32.90;46.20;;;;;;5159612;27;20026;-67
2023/07/31 11:28:34;;;;;;;1.75;0.85;;;33.50;45.90;;;;;;5178362;27;20030;-67
2023/07/31 11:31:01;;;;;;;2.63;0.98;;;34.10;44.40;;;;;;5178550;27;20053;-67
2023/07/31 11:33:26;;;;;;;2.17;0.90;;;34.10;43.50;;;;;;5159741;27;20018;-67
2023/07/31 11:35:52;;;;;;;2.38;0.95;;;33.70;43.70;;;;;;5178047;27;20053;-68
2023/07/31 11:38:28;;;;;;;1.80;0.90;;;33.80;44.20;;;;;;5178192;27;20030;-67
2023/07/31 11:41:04;;;;;;;2.42;1.20;;;34.00;43.10;;;;;;5178022;27;20010;-67
2023/07/31 11:43:31;;;;;;;1.95;0.98;;;33.60;43.70;;;;;;5178028;27;20034;-67
2023/07/31 11:46:02;;;;;;;1.27;0.93;;;32.60;44.20;;;;;;5177882;27;20026;-65
2023/07/31 11:48:34;;;;;;;2.97;0.90;;;32.60;44.40;;;;;;5158980;27;20079;-66
2023/07/31 11:51:02;;;;;;;5.35;0.90;;;32.80;45.50;;;;;;5159503;27;20023;-65
2023/07/31 11:53:37;;;;;;;3.40;1.27;;;32.60;44.40;;;;;;5176814;27;20030;-66
2023/07/31 11:56:04;;;;;;;3.20;1.00;;;32.40;45.30;;;;;;5177927;27;20260;-66
2023/07/31 11:58:32;;;;;;;3.45;0.90;;;32.40;45.70;;;;;;5177705;27;20551;-66
2023/07/31 12:00:58;;;;;;;5.50;0.90;;;32.50;45.00;;;;;;5177631;27;20018;-66
2023/07/31 12:03:25;;;;;;;2.67;0.73;;;32.50;45.10;;;;;;5158846;27;20034;-66
2023/07/31 12:05:53;;;;;;;2.35;0.93;;;32.70;45.40;;;;;;5158717;27;20435;-66
2023/07/31 12:08:21;;;;;;;1.05;0.93;;;32.90;44.70;;;;;;5158731;27;20459;-65
2023/07/31 12:10:49;;;;;;;2.38;0.93;;;33.20;43.90;;;;;;5177612;27;20071;-65
2023/07/31 12:13:29;;;;;;;2.50;1.10;;;33.50;42.70;;;;;;5177366;27;20034;-65
2023/07/31 12:15:57;;;;;;;1.42;1.00;;;33.90;42.60;;;;;;5177715;27;20035;-65
2023/07/31 12:18:24;;;;;;;1.67;0.70;;;33.80;41.50;;;;;;5158473;27;20018;-66
2023/07/31 12:20:57;;;;;;;1.33;0.80;;;33.90;41.80;;;;;;5158455;27;20379;-65
2023/07/31 12:23:28;;;;;;;1.90;0.68;;;34.00;41.80;;;;;;5158457;27;20018;-66
2023/07/31 12:26:20;;;;;;;1.30;0.80;;;34.20;40.90;;;;;;5177103;27;20025;-67
2023/07/31 12:28:50;;;;;;;0.95;0.77;;;34.80;41.10;;;;;;5171964;27;20034;-66
2023/07/31 12:31:22;;;;;;;2.80;0.80;;;35.20;39.20;;;;;;5177467;27;20022;-68
2023/07/31 12:33:50;;;;;;;2.25;1.10;;;35.40;40.30;;;;;;5176644;27;20030;-67
2023/07/31 12:36:19;;;;;;;1.20;0.82;;;35.60;39.80;;;;;;5177098;27;20059;-66
2023/07/31 12:38:46;;;;;;;1.27;0.93;;;35.20;40.20;;;;;;5177212;27;20057;-66
2023/07/31 12:41:12;;;;;;;1.20;0.95;;;35.30;40.60;;;;;;5176845;27;20075;-67
2023/07/31 12:43:39;;;;;;;2.50;0.90;;;35.30;39.70;;;;;;5176793;27;20478;-65
2023/07/31 12:46:05;;;;;;;1.88;0.98;;;35.30;40.20;;;;;;5176829;27;20083;-67
2023/07/31 12:48:32;;;;;;;2.58;0.63;;;35.20;40.70;;;;;;5176740;27;20064;-67